Olmeca — V7NB3 — position and weather

sailwx.info

Track history (hours):
 
Tides and Currents Weather Stations Pressure Air Temp Water Temp Dewpoint Dewpoint Depression Visibility Wind Speed Wind Dir Waves Ship Positions

Olmeca

Last reported at 2017-Nov-18 15:00 UTC. Time now 2017-Nov-19 04:59 UTC.
Position N 29°32' W 094°54'.

Length 129 m; draft 7.5 m.

Type: Ship. MMSI: 538002937.

Date/timePositionNaut miles runAvg speedWind from/ knotsBaromVisibWave heightAir tempDewpointWater temp
2017-Nov-18 15:00N 29°32' W 094°54'511.1
2017-Nov-18 14:31N 29°36' W 094°57'4 7.3
2017-Nov-18 14:00N 29°37' W 095°01'0 0.1
2017-Nov-18 13:30N 29°37' W 095°01'0 0.0
2017-Nov-18 12:57N 29°37' W 095°01'0 0.0
2017-Nov-18 12:30N 29°37' W 095°01'0 0.0
2017-Nov-18 12:00N 29°37' W 095°01'0 0.0
2017-Nov-18 11:30N 29°37' W 095°01'0 0.0
2017-Nov-18 11:00N 29°37' W 095°01'0 0.0
2017-Nov-18 10:30N 29°37' W 095°01'0 0.0
2017-Nov-18 10:00N 29°37' W 095°01'0 0.0
2017-Nov-18 09:24N 29°37' W 095°01'0 0.0
2017-Nov-18 09:00N 29°37' W 095°01'0 0.0
2017-Nov-18 08:30N 29°37' W 095°01'0 0.0
2017-Nov-18 08:00N 29°37' W 095°01'0 0.0
2017-Nov-18 07:30N 29°37' W 095°01'0 0.0
2017-Nov-18 07:00N 29°37' W 095°01'0 0.0
2017-Nov-18 06:30N 29°37' W 095°01'0 0.0
2017-Nov-18 06:00N 29°37' W 095°01'0 0.0
2017-Nov-18 05:30N 29°37' W 095°01'0 0.0
2017-Nov-18 05:00N 29°37' W 095°01'0 0.3
2017-Nov-18 04:31N 29°37' W 095°01'3 6.7
2017-Nov-18 04:01N 29°37' W 094°58'611.4
2017-Nov-18 03:30N 29°32' W 094°54'10 6.8
2017-Nov-18 02:02N 29°22' W 094°51'1 7.1
2017-Nov-18 01:50N 29°23' W 094°53'0 0.0
2017-Nov-16 10:40N 29°23' W 094°53'1 8.2
2017-Nov-16 10:30N 29°22' W 094°51'  
Track history (hours):
 
Tides and Currents Weather Stations Pressure Air Temp Water Temp Dewpoint Dewpoint Depression Visibility Wind Speed Wind Dir Waves Ship Positions

Olmeca

Last reported at 2017-Nov-18 15:00 UTC. Time now 2017-Nov-19 04:59 UTC.
Position N 29°32' W 094°54'.

Length 129 m; draft 7.5 m.

Type: Ship. MMSI: 538002937.

Date/timePositionNaut miles runAvg speedWind from/ knotsBaromVisibWave heightAir tempDewpointWater temp
2017-Nov-18 15:00N 29°32' W 094°54'511.1
2017-Nov-18 14:31N 29°36' W 094°57'4 7.3
2017-Nov-18 14:00N 29°37' W 095°01'0 0.1
2017-Nov-18 13:30N 29°37' W 095°01'0 0.0
2017-Nov-18 12:57N 29°37' W 095°01'0 0.0
2017-Nov-18 12:30N 29°37' W 095°01'0 0.0
2017-Nov-18 12:00N 29°37' W 095°01'0 0.0
2017-Nov-18 11:30N 29°37' W 095°01'0 0.0
2017-Nov-18 11:00N 29°37' W 095°01'0 0.0
2017-Nov-18 10:30N 29°37' W 095°01'0 0.0
2017-Nov-18 10:00N 29°37' W 095°01'0 0.0
2017-Nov-18 09:24N 29°37' W 095°01'0 0.0
2017-Nov-18 09:00N 29°37' W 095°01'0 0.0
2017-Nov-18 08:30N 29°37' W 095°01'0 0.0
2017-Nov-18 08:00N 29°37' W 095°01'0 0.0
2017-Nov-18 07:30N 29°37' W 095°01'0 0.0
2017-Nov-18 07:00N 29°37' W 095°01'0 0.0
2017-Nov-18 06:30N 29°37' W 095°01'0 0.0
2017-Nov-18 06:00N 29°37' W 095°01'0 0.0
2017-Nov-18 05:30N 29°37' W 095°01'0 0.0
2017-Nov-18 05:00N 29°37' W 095°01'0 0.3
2017-Nov-18 04:31N 29°37' W 095°01'3 6.7
2017-Nov-18 04:01N 29°37' W 094°58'611.4
2017-Nov-18 03:30N 29°32' W 094°54'10 6.8
2017-Nov-18 02:02N 29°22' W 094°51'1 7.1
2017-Nov-18 01:50N 29°23' W 094°53'0 0.0
2017-Nov-16 10:40N 29°23' W 094°53'1 8.2
2017-Nov-16 10:30N 29°22' W 094°51'  

Dump ship's entire track history